Time;durP1;ratioP1;P1;durP2;ratioP2;P2;SDS_P1;SDS_P2;PMS_P1;PMS_P2;Temp;Humidity;BMP_temperature;BMP_pressure;BME280_temperature;BME280_humidity;BME280_pressure;Samples;Min_cycle;Max_cycle;Signal;HPM_P1;HPM_P2
2023/02/27 00:02:25;;;;;;;12.50;7.00;;;;;;;5.01;80.06;99373.70;82062;1298;3011336;-64
2023/02/27 00:04:56;;;;;;;10.50;5.90;;;;;;;4.78;80.23;99383.07;80859;1294;3067913;-63
2023/02/27 00:07:24;;;;;;;10.40;5.90;;;;;;;4.72;80.76;99386.77;82084;1295;3012711;-63
2023/02/27 00:09:56;;;;;;;10.70;5.90;;;;;;;4.65;81.10;99381.14;80840;1294;3057172;-63
2023/02/27 00:12:24;;;;;;;7.10;4.40;;;;;;;4.60;81.54;99376.10;82108;1294;3012543;-63
2023/02/27 00:14:50;;;;;;;6.30;3.90;;;;;;;5.01;80.85;99380.11;82083;1294;3011163;-63
2023/02/27 00:17:20;;;;;;;7.00;4.20;;;;;;;5.64;78.69;99375.34;80867;1298;3050254;-63
2023/02/27 00:19:52;;;;;;;;;;;;;;;5.87;77.99;99374.35;82131;1295;3011267;-62
2023/02/27 00:22:20;;;;;;;5.30;3.60;;;;;;;5.69;77.51;99379.46;80864;1295;3068231;-63
2023/02/27 00:24:47;;;;;;;7.90;4.70;;;;;;;5.68;78.15;99369.61;82107;1296;3013114;-63
2023/02/27 00:27:13;;;;;;;8.80;5.70;;;;;;;5.58;77.91;99367.09;82087;1295;3011356;-62
2023/02/27 00:29:42;;;;;;;9.40;5.80;;;;;;;5.26;78.00;99377.05;80817;1295;3026758;-63
2023/02/27 00:32:10;;;;;;;8.00;5.10;;;;;;;5.08;79.03;99378.81;82108;1295;3011513;-63
2023/02/27 00:34:36;;;;;;;8.90;5.60;;;;;;;5.04;79.54;99382.80;82117;1294;3011143;-62
2023/02/27 00:37:04;;;;;;;6.80;5.20;;;;;;;4.96;79.85;99384.65;80840;1296;3068324;-62
2023/02/27 00:39:32;;;;;;;9.30;5.50;;;;;;;4.92;79.77;99378.75;82133;1295;3011378;-64
2023/02/27 00:41:58;;;;;;;10.40;5.50;;;;;;;4.74;80.08;99382.36;82032;1295;3011055;-62
2023/02/27 00:44:26;;;;;;;8.20;5.00;;;;;;;4.53;80.98;99390.77;80793;1295;3053743;-63
2023/02/27 00:46:53;;;;;;;7.60;5.30;;;;;;;4.52;81.62;99399.48;82092;1295;3011895;-62
2023/02/27 00:49:20;;;;;;;4.90;3.50;;;;;;;4.57;81.83;99404.52;82103;1298;3011295;-63
2023/02/27 00:51:47;;;;;;;6.30;3.20;;;;;;;5.15;80.31;99402.33;80824;1298;3026146;-64
2023/02/27 00:54:15;;;;;;;7.90;4.30;;;;;;;5.71;77.85;99394.16;82143;1296;3013266;-62
2023/02/27 00:56:42;;;;;;;8.80;4.10;;;;;;;5.67;77.15;99389.80;82096;1295;3011405;-63
2023/02/27 00:59:10;;;;;;;8.30;4.00;;;;;;;5.73;77.47;99387.83;80758;1299;3052208;-63
2023/02/27 01:01:37;;;;;;;6.80;4.20;;;;;;;5.70;77.61;99390.73;82121;1298;3012711;-63
2023/02/27 01:04:08;;;;;;;7.50;4.60;;;;;;;5.52;77.70;99386.24;81592;1298;3011251;-63
2023/02/27 01:06:35;;;;;;;7.80;4.40;;;;;;;5.35;77.91;99381.74;82115;1294;3010893;-63
2023/02/27 01:09:02;;;;;;;8.30;5.60;;;;;;;5.24;78.25;99386.52;82131;1296;3011367;-63
2023/02/27 01:11:32;;;;;;;9.00;5.20;;;;;;;5.03;78.92;99388.71;80840;1295;3055941;-63
2023/02/27 01:14:00;;;;;;;9.90;6.30;;;;;;;4.90;79.54;99386.27;82127;1295;3011448;-62
2023/02/27 01:16:26;;;;;;;10.30;6.80;;;;;;;4.80;80.20;99394.10;82109;1295;3011233;-62
2023/02/27 01:18:55;;;;;;;11.30;6.60;;;;;;;4.78;80.51;99398.20;80840;1299;3053228;-63
2023/02/27 01:21:23;;;;;;;7.40;5.00;;;;;;;4.77;80.71;99400.30;82114;1294;3012457;-63
2023/02/27 01:23:50;;;;;;;7.80;5.00;;;;;;;4.78;80.06;99399.20;82098;1294;3011149;-62
2023/02/27 01:26:20;;;;;;;5.90;3.40;;;;;;;4.70;80.53;99400.05;80850;1296;3055864;-62
2023/02/27 01:28:46;;;;;;;6.40;3.00;;;;;;;5.12;79.72;99409.70;82045;1295;3012605;-62
2023/02/27 01:31:13;;;;;;;4.70;3.20;;;;;;;5.67;77.75;99412.21;82084;1296;3011223;-62
2023/02/27 01:33:41;;;;;;;3.50;2.90;;;;;;;5.96;77.36;99418.84;80834;1294;3026312;-63
2023/02/27 01:36:09;;;;;;;5.00;3.10;;;;;;;5.91;76.73;99424.09;82130;1294;3012641;-62
2023/02/27 01:38:36;;;;;;;5.60;3.70;;;;;;;5.72;76.76;99438.94;82107;1294;3011348;-62
2023/02/27 01:41:09;;;;;;;5.90;4.00;;;;;;;5.45;77.17;99432.59;80830;1294;3056563;-62
2023/02/27 01:43:57;;;;;;;4.90;3.50;;;;;;;5.21;77.87;99434.90;82129;1294;3012765;-62
2023/02/27 01:46:26;;;;;;;5.30;2.90;;;;;;;5.04;78.69;99432.79;80855;1294;3050537;-62
2023/02/27 01:49:15;;;;;;;4.70;3.50;;;;;;;4.96;79.35;99429.08;82349;1291;3012980;-62
2023/02/27 01:51:50;;;;;;;4.40;3.00;;;;;;;4.87;79.48;99429.08;81045;1289;3067897;-62
2023/02/27 01:54:20;;;;;;;5.60;3.10;;;;;;;4.82;79.69;99427.52;82227;1289;3011217;-62
2023/02/27 01:56:53;;;;;;;5.10;3.40;;;;;;;4.83;79.63;99426.80;81023;1289;3057789;-62
2023/02/27 01:59:21;;;;;;;5.00;3.50;;;;;;;4.76;79.67;99425.85;82299;1289;3012720;-62
2023/02/27 02:01:52;;;;;;;4.90;3.50;;;;;;;4.61;80.31;99426.58;81686;1290;3011595;-62
2023/02/27 02:04:32;;;;;;;5.70;2.90;;;;;;;4.54;80.74;99427.73;82328;1289;3018906;-62
2023/02/27 02:07:11;;;;;;;5.10;2.20;;;;;;;5.10;79.88;99431.00;81016;1292;3052390;-63
2023/02/27 02:09:43;;;;;;;4.20;2.60;;;;;;;5.56;77.50;99430.76;80984;1290;3069261;-64
2023/02/27 02:12:11;;;;;;;3.80;2.70;;;;;;;5.68;77.25;99419.13;82232;1290;3011323;-64
2023/02/27 02:14:45;;;;;;;3.40;3.00;;;;;;;5.71;77.65;99416.77;81064;1289;3055663;-63
2023/02/27 02:17:31;;;;;;;4.80;3.20;;;;;;;5.41;77.47;99428.20;82287;1289;3011117;-62
2023/02/27 02:20:17;;;;;;;5.60;2.50;;;;;;;5.25;78.10;99425.88;81041;1289;3053505;-65
2023/02/27 02:23:08;;;;;;;5.40;3.50;;;;;;;5.08;78.67;99438.35;81042;1290;3048152;-63
2023/02/27 02:25:39;;;;;;;5.10;3.00;;;;;;;4.93;78.93;99440.83;81102;1290;3052235;-63
2023/02/27 02:28:15;;;;;;;5.20;3.30;;;;;;;4.88;79.69;99444.64;82295;1289;3011358;-63
2023/02/27 02:30:54;;;;;;;4.20;3.00;;;;;;;4.92;79.15;99452.32;81017;1290;3069542;-63
2023/02/27 02:33:35;;;;;;;8.60;3.00;;;;;;;4.77;79.15;99450.44;81037;1290;3051501;-63
2023/02/27 02:36:22;;;;;;;3.60;2.80;;;;;;;4.73;79.51;99449.57;81038;1289;3055799;-62
2023/02/27 02:38:59;;;;;;;7.40;3.90;;;;;;;4.61;80.05;99451.73;81016;1289;3049595;-62
2023/02/27 02:41:50;;;;;;;5.40;3.20;;;;;;;4.62;80.16;99464.69;80986;1289;3053330;-62
2023/02/27 02:44:23;;;;;;;6.00;2.90;;;;;;;4.54;80.48;99471.21;81048;1289;3050568;-62
2023/02/27 02:47:00;;;;;;;6.30;3.40;;;;;;;5.17;79.46;99481.96;82214;1289;3011659;-63
2023/02/27 02:49:38;;;;;;;8.90;3.80;;;;;;;5.86;77.10;99475.77;81049;1291;3052076;-63
2023/02/27 02:52:24;;;;;;;10.20;5.20;;;;;;;5.99;76.07;99459.23;81039;1289;3068241;-63
2023/02/27 02:55:22;;;;;;;9.80;5.00;;;;;;;5.80;75.87;99455.32;80986;1289;3051245;-63
2023/02/27 02:58:11;;;;;;;7.50;4.00;;;;;;;5.45;76.76;99422.34;80974;1289;3056711;-63
2023/02/27 03:00:48;;;;;;;6.50;3.20;;;;;;;5.34;77.39;99394.46;80907;1289;3049976;-63
2023/02/27 03:03:28;;;;;;;5.20;3.50;;;;;;;5.13;77.75;99392.67;80949;1289;3053856;-63
2023/02/27 03:06:17;;;;;;;4.30;2.60;;;;;;;4.97;78.38;99395.54;80984;1289;3049922;-62
2023/02/27 03:09:11;;;;;;;3.80;2.50;;;;;;;4.70;79.04;99391.70;81039;1291;3052487;-63
2023/02/27 03:11:43;;;;;;;4.00;2.50;;;;;;;4.47;80.19;99402.27;80990;1294;3051376;-64
2023/02/27 03:14:29;;;;;;;4.70;2.90;;;;;;;4.40;80.64;99396.96;82264;1294;3011244;-63
2023/02/27 03:16:59;;;;;;;5.30;3.10;;;;;;;4.30;81.13;99404.77;81045;1289;3050131;-63
2023/02/27 03:19:43;;;;;;;6.60;3.50;;;;;;;4.24;81.46;99410.55;82307;1289;3011119;-64
2023/02/27 03:22:17;;;;;;;7.20;3.70;;;;;;;4.20;81.83;99421.63;81040;1289;3047581;-64
2023/02/27 03:24:52;;;;;;;6.80;3.50;;;;;;;4.26;82.05;99453.48;82241;1289;3011282;-64
2023/02/27 03:27:30;;;;;;;5.40;3.00;;;;;;;4.26;81.85;99463.57;81014;1289;3049438;-63
2023/02/27 03:30:02;;;;;;;4.90;3.10;;;;;;;4.83;80.65;99461.48;82187;1289;3011418;-64
2023/02/27 03:32:51;;;;;;;4.10;2.70;;;;;;;5.41;78.50;99460.02;80982;1292;3052848;-64
2023/02/27 03:35:19;;;;;;;3.90;2.60;;;;;;;5.61;77.52;99459.19;81022;1295;3069538;-63
2023/02/27 03:38:31;;;;;;;5.20;3.00;;;;;;;5.55;77.20;99450.58;82286;1290;3012883;-64
2023/02/27 03:41:27;;;;;;;4.20;3.00;;;;;;;5.34;77.72;99443.94;81007;1289;3049078;-64
2023/02/27 03:44:09;;;;;;;4.00;3.00;;;;;;;4.99;78.22;99426.02;81012;1289;3052910;-63
2023/02/27 03:46:40;;;;;;;6.60;3.50;;;;;;;4.76;79.06;99418.55;80885;1299;3049431;-62
2023/02/27 03:49:07;;;;;;;6.20;3.70;;;;;;;4.70;79.55;99437.88;82326;1294;3011138;-63
2023/02/27 03:51:33;;;;;;;6.30;4.10;;;;;;;4.54;80.04;99478.34;82212;1293;3011124;-64
2023/02/27 03:54:03;;;;;;;9.10;4.60;;;;;;;4.32;81.02;99475.81;81058;1291;3026544;-63
2023/02/27 03:56:34;;;;;;;6.20;4.20;;;;;;;4.22;82.05;99455.02;82211;1289;3011030;-63
2023/02/27 03:59:04;;;;;;;;;;;;;;;4.27;82.07;99461.44;80938;1289;3048854;-62
2023/02/27 04:01:47;;;;;;;5.50;3.60;;;;;;;4.20;82.16;99463.75;81014;1289;3052455;-64
2023/02/27 04:04:16;;;;;;;7.10;4.50;;;;;;;4.08;82.72;99470.41;82327;1291;3012360;-64
2023/02/27 04:07:28;;;;;;;3.60;2.90;;;;;;;4.10;83.17;99477.45;81041;1294;3051266;-63
2023/02/27 04:10:05;;;;;;;3.60;2.60;;;;;;;4.90;81.37;99460.71;81076;1289;3069425;-62
2023/02/27 04:13:02;;;;;;;6.50;3.60;;;;;;;5.53;78.71;99451.16;81056;1289;3051389;-63
2023/02/27 04:15:59;;;;;;;7.30;4.30;;;;;;;5.56;77.59;99453.84;81014;1289;3056509;-63
2023/02/27 04:18:37;;;;;;;8.60;5.00;;;;;;;5.28;77.92;99459.14;81050;1291;3049070;-63
2023/02/27 04:21:21;;;;;;;9.00;5.30;;;;;;;5.03;78.51;99452.62;81013;1289;3052703;-63
2023/02/27 04:23:55;;;;;;;8.80;5.30;;;;;;;4.91;78.98;99456.02;80988;1289;3049654;-63
2023/02/27 04:26:31;;;;;;;7.50;4.70;;;;;;;4.70;79.53;99458.70;82325;1289;3011772;-63
2023/02/27 04:29:09;;;;;;;7.50;5.00;;;;;;;4.64;79.99;99451.60;80993;1291;3052372;-62
2023/02/27 04:31:53;;;;;;;9.50;4.80;;;;;;;4.62;80.64;99443.21;80983;1289;3069985;-63
2023/02/27 04:34:44;;;;;;;7.80;4.90;;;;;;;4.60;80.28;99448.99;81022;1289;3051544;-64
2023/02/27 04:37:21;;;;;;;7.40;4.90;;;;;;;4.37;80.88;99442.34;81020;1289;3056107;-63
2023/02/27 04:39:59;;;;;;;9.50;5.60;;;;;;;4.36;81.15;99442.23;81043;1289;3050432;-63
2023/02/27 04:42:31;;;;;;;5.60;3.70;;;;;;;4.31;81.43;99440.66;81070;1289;3053060;-62
2023/02/27 04:45:06;;;;;;;4.80;3.10;;;;;;;4.77;80.59;99443.66;80947;1294;3049031;-65
2023/02/27 04:47:35;;;;;;;5.00;3.00;;;;;;;5.34;78.47;99445.15;82237;1289;3011456;-63
2023/02/27 04:50:09;;;;;;;6.90;3.60;;;;;;;5.46;77.75;99444.35;81027;1291;3052869;-63
2023/02/27 04:52:38;;;;;;;5.50;3.70;;;;;;;5.30;77.75;99449.14;82244;1292;3011008;-64
2023/02/27 04:55:26;;;;;;;7.00;4.30;;;;;;;5.07;78.26;99446.39;81040;1289;3052222;-63
2023/02/27 04:58:09;;;;;;;8.20;4.30;;;;;;;4.99;79.11;99446.33;81022;1289;3057464;-63
2023/02/27 05:00:38;;;;;;;6.70;3.80;;;;;;;4.87;79.28;99448.34;80996;1296;3049274;-63
2023/02/27 05:03:11;;;;;;;6.80;4.40;;;;;;;4.83;79.56;99456.67;82362;1289;3012761;-62
2023/02/27 05:05:40;;;;;;;5.30;4.10;;;;;;;4.74;79.82;99458.92;81026;1291;3051441;-63
2023/02/27 05:08:28;;;;;;;7.30;4.70;;;;;;;4.69;80.28;99449.38;82306;1291;3011348;-63
2023/02/27 05:10:56;;;;;;;7.50;4.40;;;;;;;4.59;80.74;99432.39;80991;1289;3051454;-63
2023/02/27 05:13:29;;;;;;;6.60;4.80;;;;;;;4.48;80.88;99431.90;82325;1289;3012282;-63
2023/02/27 05:16:03;;;;;;;7.30;5.10;;;;;;;4.47;81.27;99436.63;81028;1289;3053065;-63
2023/02/27 05:18:36;;;;;;;6.30;3.80;;;;;;;4.47;81.47;99456.91;80978;1289;3051625;-63
2023/02/27 05:21:09;;;;;;;7.60;3.10;;;;;;;5.09;80.22;99462.24;82317;1290;3011404;-63
2023/02/27 05:23:43;;;;;;;5.60;3.40;;;;;;;5.73;77.62;99466.20;81011;1289;3066681;-64
2023/02/27 05:26:31;;;;;;;7.80;4.60;;;;;;;5.85;76.79;99460.66;82275;1289;3011679;-63
2023/02/27 05:29:15;;;;;;;8.60;5.30;;;;;;;5.66;76.82;99457.64;80984;1289;3055015;-63
2023/02/27 05:32:07;;;;;;;9.80;6.80;;;;;;;5.61;77.49;99457.65;80953;1289;3050434;-64
2023/02/27 05:34:42;;;;;;;12.30;7.00;;;;;;;5.23;77.56;99466.59;80972;1290;3053615;-64
2023/02/27 05:37:33;;;;;;;11.20;6.70;;;;;;;5.13;78.48;99464.73;81737;1289;3011400;-64
2023/02/27 05:40:07;;;;;;;10.50;6.30;;;;;;;4.98;78.95;99480.75;80928;1296;3049937;-63
2023/02/27 05:42:37;;;;;;;10.50;5.70;;;;;;;4.90;79.37;99491.27;82243;1289;3011881;-62
2023/02/27 05:45:10;;;;;;;10.50;6.10;;;;;;;4.77;79.97;99499.05;80943;1293;3051983;-62
2023/02/27 05:47:39;;;;;;;9.20;5.70;;;;;;;4.76;80.30;99505.70;82268;1294;3011564;-62
2023/02/27 05:50:11;;;;;;;10.00;5.80;;;;;;;4.75;80.49;99501.17;81000;1291;3050980;-62
2023/02/27 05:52:39;;;;;;;9.70;5.90;;;;;;;4.64;80.61;99502.95;82284;1289;3011174;-62
2023/02/27 05:55:17;;;;;;;5.50;3.40;;;;;;;4.65;81.01;99501.20;80987;1290;3049276;-63
2023/02/27 05:58:06;;;;;;;7.50;3.40;;;;;;;5.12;79.99;99500.52;80970;1289;3052398;-63
2023/02/27 06:00:47;;;;;;;5.70;3.50;;;;;;;5.81;77.59;99504.81;80998;1291;3050106;-63
2023/02/27 06:03:15;;;;;;;7.00;3.50;;;;;;;5.87;76.66;99507.36;80988;1296;3052100;-63
2023/02/27 06:05:42;;;;;;;6.80;3.80;;;;;;;5.78;76.90;99510.14;82184;1293;3011759;-63
2023/02/27 06:08:09;;;;;;;7.00;4.40;;;;;;;5.57;77.15;99512.38;82246;1291;3011364;-62
2023/02/27 06:10:37;;;;;;;9.50;4.90;;;;;;;5.42;77.76;99521.45;81005;1290;3056267;-62
2023/02/27 06:13:03;;;;;;;9.80;5.00;;;;;;;5.34;78.19;99518.13;82260;1290;3012592;-64
2023/02/27 06:15:30;;;;;;;12.90;5.60;;;;;;;5.20;78.12;99513.61;82265;1290;3011371;-62
2023/02/27 06:17:58;;;;;;;10.90;5.40;;;;;;;4.94;78.93;99513.17;81002;1291;3026350;-63
2023/02/27 06:20:25;;;;;;;10.90;5.90;;;;;;;4.91;80.06;99510.36;82278;1290;3018113;-62
2023/02/27 06:22:52;;;;;;;8.20;5.10;;;;;;;4.85;80.08;99505.16;82274;1291;3011326;-63
2023/02/27 06:25:20;;;;;;;6.90;4.90;;;;;;;4.84;80.10;99502.27;80991;1289;3027066;-62
2023/02/27 06:27:47;;;;;;;6.90;4.40;;;;;;;4.83;80.13;99500.59;82292;1291;3011240;-62
2023/02/27 06:30:13;;;;;;;7.10;4.60;;;;;;;4.77;80.31;99499.58;82260;1290;3011415;-63
2023/02/27 06:32:42;;;;;;;5.10;3.20;;;;;;;4.76;80.62;99505.17;81036;1290;3053528;-63
2023/02/27 06:35:11;;;;;;;4.40;2.60;;;;;;;5.32;79.91;99504.13;82283;1289;3011464;-64
2023/02/27 06:37:38;;;;;;;4.70;3.30;;;;;;;6.06;78.25;99505.19;82293;1289;3011497;-62
2023/02/27 06:40:10;;;;;;;5.90;3.70;;;;;;;6.22;76.56;99501.25;81076;1290;3057207;-63
2023/02/27 06:42:38;;;;;;;7.90;4.60;;;;;;;6.23;76.23;99501.73;82277;1289;3011329;-63
2023/02/27 06:45:06;;;;;;;7.90;4.70;;;;;;;5.98;76.23;99503.08;80986;1289;3052390;-63
2023/02/27 06:47:34;;;;;;;6.70;4.40;;;;;;;5.80;76.76;99507.45;82265;1290;3012521;-63
2023/02/27 06:50:00;;;;;;;7.40;5.10;;;;;;;5.70;77.28;99506.99;82313;1289;3011201;-64
2023/02/27 06:52:29;;;;;;;10.90;5.40;;;;;;;5.65;78.16;99508.40;80994;1290;3069567;-62
2023/02/27 06:54:57;;;;;;;8.50;5.00;;;;;;;5.68;78.20;99502.20;82267;1291;3011414;-64
2023/02/27 06:57:23;;;;;;;10.40;5.10;;;;;;;5.62;78.44;99502.29;82282;1290;3011216;-64
2023/02/27 06:59:51;;;;;;;9.20;5.50;;;;;;;5.60;78.65;99499.39;80972;1291;3051775;-65
2023/02/27 07:02:24;;;;;;;12.30;5.80;;;;;;;5.66;78.56;99500.19;82246;1290;3011330;-64
2023/02/27 07:04:56;;;;;;;9.50;5.40;;;;;;;5.71;78.50;99498.63;80994;1290;3052988;-65
2023/02/27 07:07:26;;;;;;;9.40;5.90;;;;;;;5.72;78.35;99497.73;82290;1290;3011104;-63
2023/02/27 07:09:53;;;;;;;11.80;5.50;;;;;;;5.67;78.64;99496.65;81031;1289;3027563;-62
2023/02/27 07:12:20;;;;;;;10.00;5.50;;;;;;;5.68;78.75;99493.66;82266;1290;3013098;-62
2023/02/27 07:15:00;;;;;;;6.80;4.20;;;;;;;5.78;78.75;99495.73;81002;1290;3049281;-63
2023/02/27 07:17:27;;;;;;;6.30;4.10;;;;;;;6.34;77.06;99488.72;82293;1290;3013253;-63
2023/02/27 07:20:01;;;;;;;7.80;4.40;;;;;;;7.02;75.00;99490.63;81017;1290;3052663;-62
2023/02/27 07:22:29;;;;;;;9.60;4.60;;;;;;;7.11;73.40;99492.67;82315;1289;3012631;-62
2023/02/27 07:24:55;;;;;;;10.80;6.10;;;;;;;7.17;73.58;99492.23;82252;1289;3011369;-66
2023/02/27 07:27:23;;;;;;;9.60;5.60;;;;;;;7.12;73.74;99491.59;81012;1290;3056651;-65
2023/02/27 07:29:50;;;;;;;11.70;6.70;;;;;;;6.97;73.64;99484.96;82300;1289;3012490;-62
2023/02/27 07:32:16;;;;;;;10.70;6.50;;;;;;;6.75;74.51;99484.88;82268;1289;3011179;-62
2023/02/27 07:34:44;;;;;;;11.10;6.60;;;;;;;6.77;74.99;99491.60;81020;1291;3024957;-62
2023/02/27 07:37:15;;;;;;;11.70;6.40;;;;;;;6.66;75.08;99492.59;82260;1290;3011362;-63
2023/02/27 07:39:43;;;;;;;13.70;7.10;;;;;;;6.53;75.09;99504.27;81028;1290;3027516;-63
2023/02/27 07:42:10;;;;;;;14.40;7.30;;;;;;;6.43;75.65;99506.14;82310;1290;3011046;-62
2023/02/27 07:44:42;;;;;;;11.30;7.50;;;;;;;6.31;76.58;99508.04;81732;1290;3011333;-64
2023/02/27 07:47:10;;;;;;;10.40;6.70;;;;;;;6.17;76.91;99502.70;82276;1290;3017992;-63
2023/02/27 07:49:36;;;;;;;13.70;7.50;;;;;;;6.17;77.10;99504.79;82285;1290;3011656;-63
2023/02/27 07:52:07;;;;;;;13.70;7.50;;;;;;;6.16;77.08;99509.14;81056;1290;3053540;-63
2023/02/27 07:54:36;;;;;;;14.30;7.40;;;;;;;6.14;77.20;99507.67;82321;1289;3012999;-63
2023/02/27 07:57:05;;;;;;;16.90;8.40;;;;;;;6.10;77.32;99506.63;81031;1290;3050510;-63
2023/02/27 07:59:32;;;;;;;15.30;8.80;;;;;;;6.02;77.89;99512.52;82263;1291;3012702;-64
2023/02/27 08:01:58;;;;;;;15.30;8.80;;;;;;;6.11;77.98;99507.09;82234;1296;3011262;-63
2023/02/27 08:04:26;;;;;;;19.40;10.80;;;;;;;6.13;77.93;99509.10;80982;1290;3026822;-63
2023/02/27 08:06:52;;;;;;;17.90;9.60;;;;;;;6.03;78.64;99510.05;82278;1291;3012488;-61
2023/02/27 08:09:19;;;;;;;13.40;7.40;;;;;;;6.07;78.89;99516.29;82246;1290;3011247;-63
2023/02/27 08:11:48;;;;;;;14.20;6.90;;;;;;;6.50;77.83;99520.92;81024;1290;3050286;-63
2023/02/27 08:14:16;;;;;;;14.90;8.50;;;;;;;7.17;75.05;99521.11;80828;1291;3013384;-64
2023/02/27 08:16:52;;;;;;;14.70;7.90;;;;;;;7.33;74.14;99520.05;81000;1290;3053712;-64
2023/02/27 08:19:18;;;;;;;14.30;8.30;;;;;;;7.28;74.27;99511.40;82278;1290;3012743;-65
2023/02/27 08:21:45;;;;;;;15.80;9.20;;;;;;;7.20;74.66;99509.66;82277;1290;3011129;-64
2023/02/27 08:24:13;;;;;;;17.10;9.40;;;;;;;7.17;74.25;99506.84;81008;1289;3026614;-66
2023/02/27 08:26:39;;;;;;;14.90;9.60;;;;;;;6.98;74.66;99503.19;82277;1289;3018011;-64
2023/02/27 08:29:09;;;;;;;15.80;9.50;;;;;;;6.83;75.40;99505.38;82299;1290;3011258;-61
2023/02/27 08:31:36;;;;;;;20.10;9.70;;;;;;;6.71;75.80;99506.81;81043;1289;3053838;-64
2023/02/27 08:34:03;;;;;;;16.80;9.90;;;;;;;6.66;76.18;99500.08;82277;1289;3012663;-62
2023/02/27 08:36:30;;;;;;;22.00;10.80;;;;;;;6.63;76.22;99499.71;82290;1291;3011214;-63
2023/02/27 08:38:58;;;;;;;17.80;9.70;;;;;;;6.59;76.43;99504.21;81040;1291;3027266;-64
2023/02/27 08:41:25;;;;;;;15.70;9.30;;;;;;;6.40;76.77;99505.19;82306;1289;3012491;-64
2023/02/27 08:43:51;;;;;;;18.10;10.30;;;;;;;6.44;77.30;99504.52;82280;1289;3011294;-64
2023/02/27 08:46:21;;;;;;;18.80;9.80;;;;;;;6.41;77.27;99510.73;80984;1291;3051953;-64
2023/02/27 08:48:48;;;;;;;16.60;8.60;;;;;;;6.47;77.51;99520.73;82279;1290;3012931;-63
2023/02/27 08:51:15;;;;;;;18.90;9.60;;;;;;;6.45;77.29;99524.80;82278;1290;3011253;-64
2023/02/27 08:53:43;;;;;;;16.80;8.90;;;;;;;6.42;77.62;99530.84;81040;1290;3026039;-63
2023/02/27 08:56:11;;;;;;;15.20;8.50;;;;;;;6.48;77.86;99524.50;82329;1289;3012779;-64
2023/02/27 08:58:39;;;;;;;14.10;7.40;;;;;;;6.60;77.81;99526.42;82304;1289;3011272;-64
2023/02/27 09:01:07;;;;;;;13.70;7.80;;;;;;;6.65;77.05;99525.18;81033;1291;3052663;-65
2023/02/27 09:03:36;;;;;;;18.60;9.20;;;;;;;6.67;77.21;99529.30;82305;1291;3011108;-64
2023/02/27 09:06:02;;;;;;;16.60;6.40;;;;;;;6.70;77.74;99530.69;82304;1290;3011413;-62
2023/02/27 09:08:31;;;;;;;14.20;7.30;;;;;;;7.32;76.15;99529.31;81005;1290;3069569;-64
2023/02/27 09:10:57;;;;;;;17.60;8.00;;;;;;;7.99;73.00;99531.90;82266;1290;3018251;-65
2023/02/27 09:13:25;;;;;;;19.60;8.80;;;;;;;8.32;72.28;99530.85;82288;1290;3011016;-65
2023/02/27 09:15:54;;;;;;;16.20;9.10;;;;;;;8.27;71.44;99528.08;81085;1291;3053705;-62
2023/02/27 09:18:24;;;;;;;18.00;9.40;;;;;;;8.19;72.01;99530.08;82279;1290;3011339;-62
2023/02/27 09:20:52;;;;;;;18.70;10.00;;;;;;;8.03;72.07;99530.70;81028;1291;3027159;-64
2023/02/27 09:23:19;;;;;;;16.50;8.40;;;;;;;7.92;72.52;99529.66;82324;1289;3012528;-65
2023/02/27 09:25:46;;;;;;;20.20;10.00;;;;;;;7.85;73.13;99524.89;82297;1290;3011766;-62
2023/02/27 09:28:14;;;;;;;15.20;9.00;;;;;;;7.77;73.52;99520.80;81030;1289;3056324;-64
2023/02/27 09:30:42;;;;;;;17.30;9.20;;;;;;;7.69;73.89;99522.55;82338;1289;3013313;-65
2023/02/27 09:33:08;;;;;;;15.50;9.00;;;;;;;7.62;74.22;99518.54;82297;1289;3011446;-70
2023/02/27 09:35:37;;;;;;;13.80;8.70;;;;;;;7.56;74.49;99513.77;81062;1289;3052492;-66
2023/02/27 09:38:03;;;;;;;17.10;8.80;;;;;;;7.53;74.64;99508.30;82345;1291;3012258;-65
2023/02/27 09:40:31;;;;;;;15.20;8.90;;;;;;;7.49;74.50;99506.75;82333;1289;3011287;-62
2023/02/27 09:43:00;;;;;;;15.70;7.90;;;;;;;7.44;74.76;99508.02;81039;1289;3055995;-64
2023/02/27 09:45:29;;;;;;;15.20;8.80;;;;;;;7.44;74.79;99510.13;82297;1291;3012856;-63
2023/02/27 09:48:05;;;;;;;14.40;8.30;;;;;;;7.36;75.16;99512.95;81784;1291;3011690;-65
2023/02/27 09:50:40;;;;;;;18.00;9.10;;;;;;;7.36;75.30;99512.06;81018;1289;3049917;-63
2023/02/27 09:53:25;;;;;;;16.80;9.00;;;;;;;7.34;75.48;99513.73;81750;1289;3011381;-64
2023/02/27 09:55:53;;;;;;;21.30;8.80;;;;;;;7.43;75.68;99510.16;81053;1290;3053196;-64
2023/02/27 09:58:30;;;;;;;18.80;9.60;;;;;;;7.36;75.61;99506.86;82256;1293;3018276;-69
2023/02/27 10:01:08;;;;;;;16.80;8.30;;;;;;;7.30;75.97;99515.67;80970;1291;3050736;-70
2023/02/27 10:03:36;;;;;;;14.60;8.00;;;;;;;7.27;76.39;99511.60;81040;1289;3056926;-68
2023/02/27 10:06:19;;;;;;;15.50;8.40;;;;;;;7.28;76.53;99510.19;82319;1291;3011289;-65
2023/02/27 10:09:04;;;;;;;19.90;9.20;;;;;;;7.20;76.72;99510.56;81040;1290;3049204;-67
2023/02/27 10:11:48;;;;;;;19.40;9.20;;;;;;;7.13;76.98;99498.33;81029;1290;3051546;-65
2023/02/27 10:14:24;;;;;;;17.10;8.90;;;;;;;7.14;77.17;99486.63;81024;1290;3052817;-66
2023/02/27 10:16:52;;;;;;;17.40;9.30;;;;;;;7.12;77.00;99490.52;81039;1290;3070405;-67
2023/02/27 10:19:39;;;;;;;18.80;9.60;;;;;;;7.04;77.59;99494.88;82292;1290;3012834;-71
2023/02/27 10:22:12;;;;;;;20.50;9.90;;;;;;;7.07;78.09;99489.71;81012;1290;3048494;-69
2023/02/27 10:24:43;;;;;;;14.20;7.40;;;;;;;7.16;77.67;99482.30;82273;1289;3011073;-67
2023/02/27 10:27:14;;;;;;;14.70;6.60;;;;;;;7.74;76.30;99485.84;80962;1292;3050214;-68
2023/02/27 10:29:41;;;;;;;15.80;8.20;;;;;;;8.30;73.71;99479.26;82226;1289;3011142;-68
2023/02/27 10:32:11;;;;;;;16.00;8.30;;;;;;;8.48;73.19;99475.41;81054;1291;3026098;-68
2023/02/27 10:34:39;;;;;;;15.80;8.90;;;;;;;8.51;72.87;99474.54;82314;1291;3012757;-72
2023/02/27 10:37:11;;;;;;;14.60;8.50;;;;;;;8.50;72.75;99480.54;81732;1289;3011762;-69
2023/02/27 10:39:45;;;;;;;19.90;10.00;;;;;;;8.41;72.99;99472.75;82253;1289;3011303;-67
2023/02/27 10:42:16;;;;;;;20.60;10.00;;;;;;;8.22;73.27;99480.36;81006;1289;3048937;-71
2023/02/27 10:44:45;;;;;;;25.20;10.20;;;;;;;8.11;74.18;99484.58;82271;1290;3012881;-71
2023/02/27 10:47:13;;;;;;;22.90;9.60;;;;;;;8.01;74.35;99488.89;82313;1289;3011392;-70
2023/02/27 10:49:42;;;;;;;21.50;10.80;;;;;;;7.92;75.03;99493.04;81016;1291;3052905;-72
2023/02/27 10:52:11;;;;;;;20.00;11.00;;;;;;;7.87;75.19;99505.12;82318;1289;3012532;-66
2023/02/27 10:54:41;;;;;;;23.10;11.00;;;;;;;7.77;75.52;99506.83;81790;1290;3011292;-64
2023/02/27 10:57:27;;;;;;;22.90;11.60;;;;;;;7.62;75.94;99510.50;82273;1291;3011454;-66
2023/02/27 10:59:59;;;;;;;23.10;10.90;;;;;;;7.53;76.78;99519.67;81036;1290;3053827;-71
2023/02/27 11:02:40;;;;;;;20.70;11.00;;;;;;;7.60;76.95;99518.98;82310;1289;3011224;-72
2023/02/27 11:05:20;;;;;;;24.10;11.60;;;;;;;7.52;76.95;99515.71;81020;1296;3052295;-71
2023/02/27 11:07:48;;;;;;;26.90;11.20;;;;;;;7.52;77.25;99526.14;81047;1294;3053893;-67
2023/02/27 11:10:17;;;;;;;23.20;11.70;;;;;;;7.46;77.56;99525.36;82289;1291;3018060;-65
2023/02/27 11:13:03;;;;;;;21.70;11.50;;;;;;;7.44;77.74;99522.85;81808;1290;3011440;-68
2023/02/27 11:15:33;;;;;;;26.60;12.40;;;;;;;7.36;77.99;99524.94;81062;1289;3056167;-67
2023/02/27 11:18:23;;;;;;;25.30;12.50;;;;;;;7.36;78.33;99527.08;82257;1290;3011263;-65
2023/02/27 11:20:52;;;;;;;19.10;7.80;;;;;;;7.32;78.47;99523.92;80993;1291;3052849;-65
2023/02/27 11:23:23;;;;;;;18.80;8.50;;;;;;;7.99;76.97;99529.45;82267;1295;3018408;-65
2023/02/27 11:26:09;;;;;;;21.00;10.90;;;;;;;8.56;74.19;99526.17;81023;1290;3053146;-67
2023/02/27 11:28:37;;;;;;;19.80;10.40;;;;;;;8.61;73.80;99527.11;81055;1289;3069567;-68
2023/02/27 11:31:05;;;;;;;31.30;15.20;;;;;;;8.43;73.73;99532.77;82279;1289;3018230;-69
2023/02/27 11:33:38;;;;;;;32.30;15.90;;;;;;;8.17;74.34;99535.40;81707;1289;3011123;-66
2023/02/27 11:36:06;;;;;;;35.60;17.20;;;;;;;8.07;74.99;99536.27;82274;1290;3011629;-66
2023/02/27 11:38:52;;;;;;;35.50;17.20;;;;;;;7.77;75.68;99546.75;81030;1289;3053129;-72
2023/02/27 11:41:31;;;;;;;33.10;15.40;;;;;;;7.42;76.80;99554.33;81744;1291;3011398;-68
2023/02/27 11:44:01;;;;;;;35.80;15.30;;;;;;;7.38;77.81;99559.59;81007;1291;3051307;-67
2023/02/27 11:46:27;;;;;;;36.80;15.70;;;;;;;7.32;77.91;99558.44;82325;1291;3012394;-65
2023/02/27 11:49:32;;;;;;;41.30;17.30;;;;;;;7.27;77.93;99560.20;82335;1291;3011740;-66